Terminal Aerodrome Forecast
Issued by NWS Pendleton, OR

Home | Current Version | Previous Version | Text Only | Print | Product List | Glossary On
Versions: 1 2 3 4 5 6 7 8 9 10 11 12 13 14 15 16 17 18 19 20 21 22 23 24 25 26 27 28 29 30 31 32 33 34 35
000
FTUS46 KPDT 192300
TAFPDT
TAF
KPDT 192340Z 2000/2024 21006KT P6SM FEW045 SCT060 SCT250
     FM200400 16007KT P6SM SCT080 BKN180
     FM200900 14007KT P6SM -RA BKN035 OVC050=

USA.gov is the U.S. government's official web portal to all federal, state and local government web resources and services.